createdAt,value
2019-01-20T10:26:17.854Z,31.80
2019-01-20T10:28:49.682Z,32.10
2019-01-20T10:31:23.587Z,32.20
2019-01-20T10:33:53.685Z,31.30
2019-01-20T10:36:26.929Z,32.93
2019-01-20T10:38:56.471Z,31.60
2019-01-20T10:41:28.847Z,32.00
2019-01-20T10:44:02.681Z,36.10
2019-01-20T10:46:51.123Z,33.83
2019-01-20T10:49:22.778Z,31.90
2019-01-20T10:51:52.593Z,34.27
2019-01-20T10:54:22.629Z,33.17
2019-01-20T10:56:52.428Z,35.00
2019-01-20T10:59:36.528Z,31.77
2019-01-20T11:02:09.799Z,33.33
2019-01-20T11:04:39.654Z,32.80
2019-01-20T11:07:12.590Z,31.67
2019-01-20T11:09:49.816Z,32.87
2019-01-20T11:12:31.230Z,30.90
2019-01-20T11:15:03.077Z,34.00
2019-01-20T11:18:14.353Z,34.37
2019-01-20T11:20:49.636Z,35.70
2019-01-20T11:23:21.025Z,28.87
2019-01-20T11:25:50.543Z,28.40
2019-01-20T11:28:20.295Z,29.93
2019-01-20T11:30:50.215Z,29.63
2019-01-20T11:33:20.024Z,28.60
2019-01-20T11:35:50.171Z,30.70
2019-01-20T11:38:20.607Z,34.33
2019-01-20T11:40:50.516Z,28.43
2019-01-20T11:43:20.196Z,38.42
2019-01-20T11:45:50.293Z,37.85
2019-01-20T11:48:19.877Z,34.57
2019-01-20T11:50:49.623Z,34.53
2019-01-20T11:53:19.275Z,32.43
2019-01-20T11:55:49.384Z,32.93
2019-01-20T11:58:22.024Z,32.33
2019-01-20T12:00:52.457Z,32.77
2019-01-20T12:03:22.299Z,32.67
2019-01-20T12:06:25.330Z,31.47
2019-01-20T12:08:59.768Z,31.73
2019-01-20T12:11:41.320Z,32.10
2019-01-20T12:14:08.255Z,28.47
2019-01-20T12:16:37.926Z,32.70
2019-01-20T12:19:07.916Z,30.70
2019-01-20T12:21:37.514Z,30.13
2019-01-20T12:24:07.155Z,30.20
2019-01-20T12:26:36.902Z,30.80
2019-01-20T12:29:06.796Z,31.10
2019-01-20T12:31:36.471Z,30.53
2019-01-20T12:34:06.219Z,31.13
2019-01-20T12:36:40.333Z,32.60
2019-01-20T12:39:17.267Z,28.60
2019-01-20T12:41:51.120Z,29.50
2019-01-20T13:01:54.129Z,30.23
2019-01-20T13:09:20.978Z,30.20
2019-01-20T13:11:50.653Z,36.63
2019-01-20T13:14:21.419Z,38.70
2019-01-20T13:16:51.149Z,39.50
2019-01-20T13:19:21.121Z,38.88
2019-01-20T13:21:50.812Z,41.42
2019-01-20T13:24:20.578Z,41.77
2019-01-20T13:26:50.461Z,41.30
2019-01-20T13:29:20.142Z,42.03
2019-01-20T13:31:50.059Z,41.90
2019-01-20T13:34:20.400Z,41.18
2019-01-20T13:36:49.979Z,42.95
2019-01-20T13:39:19.532Z,41.80
2019-01-20T13:41:49.166Z,41.83
2019-01-20T13:44:18.779Z,42.40
2019-01-20T13:46:48.330Z,41.70
